sensor_id;sensor_type;location;lat;lon;timestamp;temperature;humidity
73277;DHT22;61501;43.316;5.372;2023-03-31T00:00:51;14.40;99.90
73277;DHT22;61501;43.316;5.372;2023-03-31T00:03:17;14.40;99.90
73277;DHT22;61501;43.316;5.372;2023-03-31T00:05:53;14.40;99.90
73277;DHT22;61501;43.316;5.372;2023-03-31T00:08:20;14.40;99.90
73277;DHT22;61501;43.316;5.372;2023-03-31T00:10:46;14.40;99.90
73277;DHT22;61501;43.316;5.372;2023-03-31T00:13:12;14.40;99.90
73277;DHT22;61501;43.316;5.372;2023-03-31T00:15:38;14.40;99.90
73277;DHT22;61501;43.316;5.372;2023-03-31T00:18:05;14.30;99.90
73277;DHT22;61501;43.316;5.372;2023-03-31T00:20:30;14.40;99.90
73277;DHT22;61501;43.316;5.372;2023-03-31T00:23:03;14.40;99.90
73277;DHT22;61501;43.316;5.372;2023-03-31T00:25:37;14.20;99.90
73277;DHT22;61501;43.316;5.372;2023-03-31T00:28:03;14.20;99.90
73277;DHT22;61501;43.316;5.372;2023-03-31T00:30:29;14.20;99.90
73277;DHT22;61501;43.316;5.372;2023-03-31T00:32:54;14.20;99.90
73277;DHT22;61501;43.316;5.372;2023-03-31T00:35:20;14.20;99.90
73277;DHT22;61501;43.316;5.372;2023-03-31T00:37:46;14.30;99.90
73277;DHT22;61501;43.316;5.372;2023-03-31T00:40:12;14.30;99.90
73277;DHT22;61501;43.316;5.372;2023-03-31T00:42:42;14.30;99.90
73277;DHT22;61501;43.316;5.372;2023-03-31T00:45:21;14.30;99.90
73277;DHT22;61501;43.316;5.372;2023-03-31T00:47:51;14.30;99.90
73277;DHT22;61501;43.316;5.372;2023-03-31T00:50:27;14.30;99.90
73277;DHT22;61501;43.316;5.372;2023-03-31T00:52:58;14.30;99.90
73277;DHT22;61501;43.316;5.372;2023-03-31T00:55:33;14.30;99.90
73277;DHT22;61501;43.316;5.372;2023-03-31T00:58:01;14.30;99.90
73277;DHT22;61501;43.316;5.372;2023-03-31T01:00:29;14.30;99.90
73277;DHT22;61501;43.316;5.372;2023-03-31T01:02:58;14.30;99.90
73277;DHT22;61501;43.316;5.372;2023-03-31T01:05:31;14.30;99.90
73277;DHT22;61501;43.316;5.372;2023-03-31T01:07:59;14.20;99.90
73277;DHT22;61501;43.316;5.372;2023-03-31T01:10:27;14.20;99.90
73277;DHT22;61501;43.316;5.372;2023-03-31T01:12:54;14.20;99.90
73277;DHT22;61501;43.316;5.372;2023-03-31T01:15:20;14.20;99.90
73277;DHT22;61501;43.316;5.372;2023-03-31T01:17:47;14.10;99.90
73277;DHT22;61501;43.316;5.372;2023-03-31T01:20:31;14.00;99.90
73277;DHT22;61501;43.316;5.372;2023-03-31T01:32:48;14.10;99.90
73277;DHT22;61501;43.316;5.372;2023-03-31T01:35:41;13.90;99.90
73277;DHT22;61501;43.316;5.372;2023-03-31T01:41:27;13.90;99.90
73277;DHT22;61501;43.316;5.372;2023-03-31T01:44:16;14.00;99.90
73277;DHT22;61501;43.316;5.372;2023-03-31T01:47:08;13.90;99.90
73277;DHT22;61501;43.316;5.372;2023-03-31T01:49:59;13.90;99.90
73277;DHT22;61501;43.316;5.372;2023-03-31T01:52:41;14.00;99.90
73277;DHT22;61501;43.316;5.372;2023-03-31T01:55:19;14.00;99.90
73277;DHT22;61501;43.316;5.372;2023-03-31T01:57:52;14.00;99.90
73277;DHT22;61501;43.316;5.372;2023-03-31T02:00:23;14.00;99.90
73277;DHT22;61501;43.316;5.372;2023-03-31T02:02:58;14.00;99.90
73277;DHT22;61501;43.316;5.372;2023-03-31T02:05:32;13.90;99.90
73277;DHT22;61501;43.316;5.372;2023-03-31T02:08:15;14.00;99.90
73277;DHT22;61501;43.316;5.372;2023-03-31T02:10:46;14.00;99.90
73277;DHT22;61501;43.316;5.372;2023-03-31T02:13:12;13.90;99.90
73277;DHT22;61501;43.316;5.372;2023-03-31T02:15:43;13.90;99.90
73277;DHT22;61501;43.316;5.372;2023-03-31T02:18:15;13.90;99.90
73277;DHT22;61501;43.316;5.372;2023-03-31T02:20:46;14.00;99.90
73277;DHT22;61501;43.316;5.372;2023-03-31T02:23:14;14.00;99.90
73277;DHT22;61501;43.316;5.372;2023-03-31T02:25:46;14.00;99.90
73277;DHT22;61501;43.316;5.372;2023-03-31T02:28:19;14.10;99.90
73277;DHT22;61501;43.316;5.372;2023-03-31T02:33:52;14.00;99.90
73277;DHT22;61501;43.316;5.372;2023-03-31T02:36:18;14.00;99.90
73277;DHT22;61501;43.316;5.372;2023-03-31T02:38:51;14.00;99.90
73277;DHT22;61501;43.316;5.372;2023-03-31T02:41:19;14.00;99.90
73277;DHT22;61501;43.316;5.372;2023-03-31T02:43:44;13.90;99.90
73277;DHT22;61501;43.316;5.372;2023-03-31T02:46:10;13.90;99.90
73277;DHT22;61501;43.316;5.372;2023-03-31T02:48:48;13.90;99.90
73277;DHT22;61501;43.316;5.372;2023-03-31T03:02:23;13.80;99.90
73277;DHT22;61501;43.316;5.372;2023-03-31T03:05:31;13.80;99.90
73277;DHT22;61501;43.316;5.372;2023-03-31T03:08:29;13.90;99.90
73277;DHT22;61501;43.316;5.372;2023-03-31T03:13:50;13.90;99.90
73277;DHT22;61501;43.316;5.372;2023-03-31T03:16:39;13.90;99.90
73277;DHT22;61501;43.316;5.372;2023-03-31T03:19:06;13.80;99.90
73277;DHT22;61501;43.316;5.372;2023-03-31T03:21:33;13.90;99.90
73277;DHT22;61501;43.316;5.372;2023-03-31T03:24:02;13.90;99.90
73277;DHT22;61501;43.316;5.372;2023-03-31T03:26:27;13.90;99.90
73277;DHT22;61501;43.316;5.372;2023-03-31T03:28:54;13.90;99.90
73277;DHT22;61501;43.316;5.372;2023-03-31T03:31:20;14.00;99.90
73277;DHT22;61501;43.316;5.372;2023-03-31T03:33:49;14.00;99.90
73277;DHT22;61501;43.316;5.372;2023-03-31T03:36:15;14.00;99.90
73277;DHT22;61501;43.316;5.372;2023-03-31T03:38:41;14.00;99.90
73277;DHT22;61501;43.316;5.372;2023-03-31T03:41:07;14.00;99.90
73277;DHT22;61501;43.316;5.372;2023-03-31T03:43:33;13.90;99.90
73277;DHT22;61501;43.316;5.372;2023-03-31T03:45:59;13.90;99.90
73277;DHT22;61501;43.316;5.372;2023-03-31T03:48:25;13.90;99.90
73277;DHT22;61501;43.316;5.372;2023-03-31T03:50:51;13.90;99.90
73277;DHT22;61501;43.316;5.372;2023-03-31T03:53:19;13.90;99.90
73277;DHT22;61501;43.316;5.372;2023-03-31T03:55:45;13.90;99.90
73277;DHT22;61501;43.316;5.372;2023-03-31T03:58:15;13.90;99.90
73277;DHT22;61501;43.316;5.372;2023-03-31T04:00:40;13.90;99.90
73277;DHT22;61501;43.316;5.372;2023-03-31T04:03:06;13.90;99.90
73277;DHT22;61501;43.316;5.372;2023-03-31T04:05:32;13.90;99.90
73277;DHT22;61501;43.316;5.372;2023-03-31T04:07:57;13.90;99.90
73277;DHT22;61501;43.316;5.372;2023-03-31T04:10:23;13.90;99.90
73277;DHT22;61501;43.316;5.372;2023-03-31T04:12:48;13.90;99.90
73277;DHT22;61501;43.316;5.372;2023-03-31T04:15:14;13.90;99.90
73277;DHT22;61501;43.316;5.372;2023-03-31T04:17:40;13.90;99.90
73277;DHT22;61501;43.316;5.372;2023-03-31T04:20:08;13.90;99.90
73277;DHT22;61501;43.316;5.372;2023-03-31T04:22:37;13.90;99.90
73277;DHT22;61501;43.316;5.372;2023-03-31T04:25:10;13.90;99.90
73277;DHT22;61501;43.316;5.372;2023-03-31T04:27:46;13.80;99.90
73277;DHT22;61501;43.316;5.372;2023-03-31T04:30:20;13.90;99.90
73277;DHT22;61501;43.316;5.372;2023-03-31T04:32:54;13.90;99.90
73277;DHT22;61501;43.316;5.372;2023-03-31T04:35:24;13.90;99.90
73277;DHT22;61501;43.316;5.372;2023-03-31T04:37:51;14.00;99.90
73277;DHT22;61501;43.316;5.372;2023-03-31T04:40:23;13.90;99.90
73277;DHT22;61501;43.316;5.372;2023-03-31T04:42:50;13.90;99.90
73277;DHT22;61501;43.316;5.372;2023-03-31T04:45:16;14.00;99.90
73277;DHT22;61501;43.316;5.372;2023-03-31T04:47:42;14.00;99.90
73277;DHT22;61501;43.316;5.372;2023-03-31T04:50:08;13.90;99.90
73277;DHT22;61501;43.316;5.372;2023-03-31T04:52:35;13.90;99.90
73277;DHT22;61501;43.316;5.372;2023-03-31T04:55:00;14.00;99.90
73277;DHT22;61501;43.316;5.372;2023-03-31T04:57:26;14.00;99.90
73277;DHT22;61501;43.316;5.372;2023-03-31T04:59:52;14.00;99.90
73277;DHT22;61501;43.316;5.372;2023-03-31T05:02:17;14.00;99.90
73277;DHT22;61501;43.316;5.372;2023-03-31T05:04:48;14.00;99.90
73277;DHT22;61501;43.316;5.372;2023-03-31T05:07:15;13.90;99.90
73277;DHT22;61501;43.316;5.372;2023-03-31T05:09:41;14.00;99.90
73277;DHT22;61501;43.316;5.372;2023-03-31T05:12:07;14.00;99.90
73277;DHT22;61501;43.316;5.372;2023-03-31T05:14:32;14.00;99.90
73277;DHT22;61501;43.316;5.372;2023-03-31T05:16:58;14.00;99.90
73277;DHT22;61501;43.316;5.372;2023-03-31T05:19:23;14.00;99.90
73277;DHT22;61501;43.316;5.372;2023-03-31T05:21:49;14.00;99.90
73277;DHT22;61501;43.316;5.372;2023-03-31T05:24:15;13.90;99.90
73277;DHT22;61501;43.316;5.372;2023-03-31T05:26:40;13.90;99.90
73277;DHT22;61501;43.316;5.372;2023-03-31T05:29:08;14.00;99.90
73277;DHT22;61501;43.316;5.372;2023-03-31T05:31:36;13.90;99.90
73277;DHT22;61501;43.316;5.372;2023-03-31T05:34:02;13.90;99.90
73277;DHT22;61501;43.316;5.372;2023-03-31T05:36:27;13.90;99.90
73277;DHT22;61501;43.316;5.372;2023-03-31T05:38:53;14.00;99.90
73277;DHT22;61501;43.316;5.372;2023-03-31T05:41:19;14.00;99.90
73277;DHT22;61501;43.316;5.372;2023-03-31T05:43:45;14.10;99.90
73277;DHT22;61501;43.316;5.372;2023-03-31T05:46:11;14.10;99.90
73277;DHT22;61501;43.316;5.372;2023-03-31T05:48:37;14.10;99.90
73277;DHT22;61501;43.316;5.372;2023-03-31T05:51:02;14.10;99.90
73277;DHT22;61501;43.316;5.372;2023-03-31T05:53:28;14.10;99.90
73277;DHT22;61501;43.316;5.372;2023-03-31T05:56:02;14.20;99.90
73277;DHT22;61501;43.316;5.372;2023-03-31T05:58:28;14.20;99.90
73277;DHT22;61501;43.316;5.372;2023-03-31T06:01:08;14.20;99.90
73277;DHT22;61501;43.316;5.372;2023-03-31T06:03:36;14.20;99.90
73277;DHT22;61501;43.316;5.372;2023-03-31T06:06:02;14.20;99.90
73277;DHT22;61501;43.316;5.372;2023-03-31T06:08:30;14.30;99.90
73277;DHT22;61501;43.316;5.372;2023-03-31T06:10:56;14.40;99.90
73277;DHT22;61501;43.316;5.372;2023-03-31T06:13:22;14.40;99.90
73277;DHT22;61501;43.316;5.372;2023-03-31T06:15:58;14.50;99.90
73277;DHT22;61501;43.316;5.372;2023-03-31T06:18:26;14.40;99.90
73277;DHT22;61501;43.316;5.372;2023-03-31T06:20:53;14.50;99.90
73277;DHT22;61501;43.316;5.372;2023-03-31T06:23:19;14.50;99.90
73277;DHT22;61501;43.316;5.372;2023-03-31T06:25:45;14.40;99.90
73277;DHT22;61501;43.316;5.372;2023-03-31T06:28:11;14.50;99.90
73277;DHT22;61501;43.316;5.372;2023-03-31T06:30:37;14.60;99.90
73277;DHT22;61501;43.316;5.372;2023-03-31T06:33:02;14.60;99.90
73277;DHT22;61501;43.316;5.372;2023-03-31T06:35:28;14.70;99.90
73277;DHT22;61501;43.316;5.372;2023-03-31T06:37:54;14.60;99.90
73277;DHT22;61501;43.316;5.372;2023-03-31T06:40:26;14.60;99.90
73277;DHT22;61501;43.316;5.372;2023-03-31T06:42:51;14.60;99.90
73277;DHT22;61501;43.316;5.372;2023-03-31T06:45:17;14.60;99.90
73277;DHT22;61501;43.316;5.372;2023-03-31T06:47:42;14.70;99.90
73277;DHT22;61501;43.316;5.372;2023-03-31T06:50:09;14.70;99.90
73277;DHT22;61501;43.316;5.372;2023-03-31T06:52:35;14.70;99.90
73277;DHT22;61501;43.316;5.372;2023-03-31T06:55:02;14.80;99.90
73277;DHT22;61501;43.316;5.372;2023-03-31T06:57:28;14.80;99.90
73277;DHT22;61501;43.316;5.372;2023-03-31T06:59:53;14.80;99.90
73277;DHT22;61501;43.316;5.372;2023-03-31T07:02:19;14.90;99.90
73277;DHT22;61501;43.316;5.372;2023-03-31T07:04:45;14.90;99.90
73277;DHT22;61501;43.316;5.372;2023-03-31T07:07:11;14.80;99.90
73277;DHT22;61501;43.316;5.372;2023-03-31T07:09:37;14.90;99.90
73277;DHT22;61501;43.316;5.372;2023-03-31T07:12:03;15.00;99.90
73277;DHT22;61501;43.316;5.372;2023-03-31T07:14:32;14.90;99.90
73277;DHT22;61501;43.316;5.372;2023-03-31T07:16:58;15.00;99.90
73277;DHT22;61501;43.316;5.372;2023-03-31T07:19:24;15.10;99.90
73277;DHT22;61501;43.316;5.372;2023-03-31T07:21:50;15.10;99.90
73277;DHT22;61501;43.316;5.372;2023-03-31T07:24:16;15.10;99.90
73277;DHT22;61501;43.316;5.372;2023-03-31T07:26:42;15.40;99.90
73277;DHT22;61501;43.316;5.372;2023-03-31T07:29:07;15.60;99.90
73277;DHT22;61501;43.316;5.372;2023-03-31T07:31:33;15.80;99.90
73277;DHT22;61501;43.316;5.372;2023-03-31T07:34:01;15.90;99.90
73277;DHT22;61501;43.316;5.372;2023-03-31T07:36:27;16.00;99.90
73277;DHT22;61501;43.316;5.372;2023-03-31T07:38:53;15.90;99.90
73277;DHT22;61501;43.316;5.372;2023-03-31T07:41:20;15.90;99.90
73277;DHT22;61501;43.316;5.372;2023-03-31T07:43:46;15.90;99.90
73277;DHT22;61501;43.316;5.372;2023-03-31T07:46:26;16.10;99.90
73277;DHT22;61501;43.316;5.372;2023-03-31T07:48:53;15.90;99.90
73277;DHT22;61501;43.316;5.372;2023-03-31T07:51:21;16.10;99.90
73277;DHT22;61501;43.316;5.372;2023-03-31T07:53:48;16.10;99.90
73277;DHT22;61501;43.316;5.372;2023-03-31T07:56:19;16.20;99.90
73277;DHT22;61501;43.316;5.372;2023-03-31T07:58:48;16.00;99.90
73277;DHT22;61501;43.316;5.372;2023-03-31T08:01:18;16.00;99.90
73277;DHT22;61501;43.316;5.372;2023-03-31T08:03:45;16.10;99.90
73277;DHT22;61501;43.316;5.372;2023-03-31T08:06:17;15.90;99.90
73277;DHT22;61501;43.316;5.372;2023-03-31T08:08:43;16.00;99.90
73277;DHT22;61501;43.316;5.372;2023-03-31T08:11:08;16.00;99.90
73277;DHT22;61501;43.316;5.372;2023-03-31T08:13:35;16.20;99.90
73277;DHT22;61501;43.316;5.372;2023-03-31T08:16:00;16.40;99.90
73277;DHT22;61501;43.316;5.372;2023-03-31T08:18:26;16.50;99.90
73277;DHT22;61501;43.316;5.372;2023-03-31T08:20:54;16.40;99.90
73277;DHT22;61501;43.316;5.372;2023-03-31T08:23:20;16.20;99.90
73277;DHT22;61501;43.316;5.372;2023-03-31T08:25:45;16.10;99.90
73277;DHT22;61501;43.316;5.372;2023-03-31T08:28:11;16.30;99.90
73277;DHT22;61501;43.316;5.372;2023-03-31T08:30:40;16.50;99.90
73277;DHT22;61501;43.316;5.372;2023-03-31T08:33:06;16.00;99.90
73277;DHT22;61501;43.316;5.372;2023-03-31T08:35:35;16.00;99.90
73277;DHT22;61501;43.316;5.372;2023-03-31T08:38:01;16.30;99.90
73277;DHT22;61501;43.316;5.372;2023-03-31T08:40:28;16.40;99.90
73277;DHT22;61501;43.316;5.372;2023-03-31T08:43:01;16.30;99.90
73277;DHT22;61501;43.316;5.372;2023-03-31T08:48:33;16.30;99.90
73277;DHT22;61501;43.316;5.372;2023-03-31T08:51:06;16.60;99.90
73277;DHT22;61501;43.316;5.372;2023-03-31T08:53:42;16.60;99.90
73277;DHT22;61501;43.316;5.372;2023-03-31T08:56:17;16.40;99.90
73277;DHT22;61501;43.316;5.372;2023-03-31T08:58:46;16.00;99.90
73277;DHT22;61501;43.316;5.372;2023-03-31T09:01:22;15.40;99.90
73277;DHT22;61501;43.316;5.372;2023-03-31T09:07:06;15.30;99.90
73277;DHT22;61501;43.316;5.372;2023-03-31T09:12:53;15.20;99.90
73277;DHT22;61501;43.316;5.372;2023-03-31T09:15:49;15.50;99.90
73277;DHT22;61501;43.316;5.372;2023-03-31T09:18:33;15.70;99.90
73277;DHT22;61501;43.316;5.372;2023-03-31T09:21:26;15.80;99.90
73277;DHT22;61501;43.316;5.372;2023-03-31T09:26:47;15.90;99.90
73277;DHT22;61501;43.316;5.372;2023-03-31T09:29:16;15.90;99.90
73277;DHT22;61501;43.316;5.372;2023-03-31T09:31:44;16.00;99.90
73277;DHT22;61501;43.316;5.372;2023-03-31T09:34:32;16.30;99.90
73277;DHT22;61501;43.316;5.372;2023-03-31T09:36:58;16.40;99.90
73277;DHT22;61501;43.316;5.372;2023-03-31T09:39:24;16.40;99.90
73277;DHT22;61501;43.316;5.372;2023-03-31T09:41:51;16.10;99.90
73277;DHT22;61501;43.316;5.372;2023-03-31T09:44:22;16.00;99.90
73277;DHT22;61501;43.316;5.372;2023-03-31T09:46:49;15.80;99.90
73277;DHT22;61501;43.316;5.372;2023-03-31T09:49:25;15.80;99.90
73277;DHT22;61501;43.316;5.372;2023-03-31T09:52:04;15.90;99.90
73277;DHT22;61501;43.316;5.372;2023-03-31T09:54:49;16.10;99.90
73277;DHT22;61501;43.316;5.372;2023-03-31T09:57:29;16.10;99.90
73277;DHT22;61501;43.316;5.372;2023-03-31T10:00:22;16.10;99.90
73277;DHT22;61501;43.316;5.372;2023-03-31T10:08:22;15.80;99.90
73277;DHT22;61501;43.316;5.372;2023-03-31T10:13:42;15.60;99.90
73277;DHT22;61501;43.316;5.372;2023-03-31T10:16:30;15.50;99.90
73277;DHT22;61501;43.316;5.372;2023-03-31T10:19:12;15.30;99.90
73277;DHT22;61501;43.316;5.372;2023-03-31T10:21:38;15.40;99.90
73277;DHT22;61501;43.316;5.372;2023-03-31T10:24:08;15.40;99.90
73277;DHT22;61501;43.316;5.372;2023-03-31T10:26:34;15.40;99.90
73277;DHT22;61501;43.316;5.372;2023-03-31T10:28:59;15.40;99.90
73277;DHT22;61501;43.316;5.372;2023-03-31T10:31:33;15.40;99.90
73277;DHT22;61501;43.316;5.372;2023-03-31T10:34:07;15.40;99.90
73277;DHT22;61501;43.316;5.372;2023-03-31T10:36:33;15.40;99.90
73277;DHT22;61501;43.316;5.372;2023-03-31T10:39:05;15.60;99.90
73277;DHT22;61501;43.316;5.372;2023-03-31T10:41:31;15.40;99.90
73277;DHT22;61501;43.316;5.372;2023-03-31T10:43:59;15.40;99.90
73277;DHT22;61501;43.316;5.372;2023-03-31T10:46:46;15.30;99.90
73277;DHT22;61501;43.316;5.372;2023-03-31T10:49:24;15.40;99.90
73277;DHT22;61501;43.316;5.372;2023-03-31T10:51:58;15.50;99.90
73277;DHT22;61501;43.316;5.372;2023-03-31T10:54:24;15.50;99.90
73277;DHT22;61501;43.316;5.372;2023-03-31T10:56:56;15.50;99.90
73277;DHT22;61501;43.316;5.372;2023-03-31T11:11:22;15.30;99.90
73277;DHT22;61501;43.316;5.372;2023-03-31T11:14:07;15.60;99.90
73277;DHT22;61501;43.316;5.372;2023-03-31T11:22:19;15.80;99.90
73277;DHT22;61501;43.316;5.372;2023-03-31T11:25:26;15.70;99.90
73277;DHT22;61501;43.316;5.372;2023-03-31T11:28:39;15.70;99.90
73277;DHT22;61501;43.316;5.372;2023-03-31T11:31:27;15.10;99.90
73277;DHT22;61501;43.316;5.372;2023-03-31T11:36:48;15.40;99.90
73277;DHT22;61501;43.316;5.372;2023-03-31T11:39:45;15.60;99.90
73277;DHT22;61501;43.316;5.372;2023-03-31T11:42:45;15.80;99.90
73277;DHT22;61501;43.316;5.372;2023-03-31T11:45:20;15.90;99.90
73277;DHT22;61501;43.316;5.372;2023-03-31T11:47:49;15.60;99.90
73277;DHT22;61501;43.316;5.372;2023-03-31T11:50:25;15.80;99.90
73277;DHT22;61501;43.316;5.372;2023-03-31T11:52:57;16.20;99.90
73277;DHT22;61501;43.316;5.372;2023-03-31T11:55:27;16.40;99.90
73277;DHT22;61501;43.316;5.372;2023-03-31T11:57:57;16.40;99.90
73277;DHT22;61501;43.316;5.372;2023-03-31T12:00:31;16.80;99.90
73277;DHT22;61501;43.316;5.372;2023-03-31T12:05:54;17.30;99.90
73277;DHT22;61501;43.316;5.372;2023-03-31T12:08:29;17.50;99.90
73277;DHT22;61501;43.316;5.372;2023-03-31T12:11:12;18.10;99.90
73277;DHT22;61501;43.316;5.372;2023-03-31T12:16:50;18.00;99.90
73277;DHT22;61501;43.316;5.372;2023-03-31T12:24:30;17.40;99.90
73277;DHT22;61501;43.316;5.372;2023-03-31T12:27:10;17.50;99.90
73277;DHT22;61501;43.316;5.372;2023-03-31T12:29:45;17.40;99.90
73277;DHT22;61501;43.316;5.372;2023-03-31T12:32:17;17.50;99.90
73277;DHT22;61501;43.316;5.372;2023-03-31T12:34:53;17.50;99.90
73277;DHT22;61501;43.316;5.372;2023-03-31T12:42:51;17.30;99.90
73277;DHT22;61501;43.316;5.372;2023-03-31T12:45:29;17.80;99.90
73277;DHT22;61501;43.316;5.372;2023-03-31T12:48:17;17.90;99.90
73277;DHT22;61501;43.316;5.372;2023-03-31T12:53:57;17.90;99.90
73277;DHT22;61501;43.316;5.372;2023-03-31T12:56:26;17.80;99.90
73277;DHT22;61501;43.316;5.372;2023-03-31T12:58:51;17.60;99.90
73277;DHT22;61501;43.316;5.372;2023-03-31T13:01:23;17.20;99.90
73277;DHT22;61501;43.316;5.372;2023-03-31T13:04:19;16.90;99.90
73277;DHT22;61501;43.316;5.372;2023-03-31T13:06:51;16.70;99.90
73277;DHT22;61501;43.316;5.372;2023-03-31T13:11:46;16.80;99.90
73277;DHT22;61501;43.316;5.372;2023-03-31T13:16:39;16.90;99.90
73277;DHT22;61501;43.316;5.372;2023-03-31T13:19:05;16.60;99.90
73277;DHT22;61501;43.316;5.372;2023-03-31T13:21:30;16.40;99.90
73277;DHT22;61501;43.316;5.372;2023-03-31T13:24:00;16.00;99.90
73277;DHT22;61501;43.316;5.372;2023-03-31T13:32:04;15.60;99.90
73277;DHT22;61501;43.316;5.372;2023-03-31T13:34:34;15.80;99.90
73277;DHT22;61501;43.316;5.372;2023-03-31T13:42:49;16.40;99.90
73277;DHT22;61501;43.316;5.372;2023-03-31T14:06:56;16.40;99.90
73277;DHT22;61501;43.316;5.372;2023-03-31T14:09:28;16.20;99.90
73277;DHT22;61501;43.316;5.372;2023-03-31T14:11:57;16.50;99.90
73277;DHT22;61501;43.316;5.372;2023-03-31T14:14:23;16.30;99.90
73277;DHT22;61501;43.316;5.372;2023-03-31T14:16:58;16.50;99.90
73277;DHT22;61501;43.316;5.372;2023-03-31T14:19:35;16.30;99.90
73277;DHT22;61501;43.316;5.372;2023-03-31T14:24:59;16.70;99.90
73277;DHT22;61501;43.316;5.372;2023-03-31T14:30:28;16.90;99.90
73277;DHT22;61501;43.316;5.372;2023-03-31T14:33:01;16.70;99.90
73277;DHT22;61501;43.316;5.372;2023-03-31T14:35:34;16.70;99.90
73277;DHT22;61501;43.316;5.372;2023-03-31T14:38:05;16.80;99.90
73277;DHT22;61501;43.316;5.372;2023-03-31T14:40:36;17.10;99.90
73277;DHT22;61501;43.316;5.372;2023-03-31T14:43:20;17.40;99.90
73277;DHT22;61501;43.316;5.372;2023-03-31T14:45:46;17.60;99.90
73277;DHT22;61501;43.316;5.372;2023-03-31T14:48:13;17.60;99.90
73277;DHT22;61501;43.316;5.372;2023-03-31T14:50:45;17.20;99.90
73277;DHT22;61501;43.316;5.372;2023-03-31T14:53:18;16.80;99.90
73277;DHT22;61501;43.316;5.372;2023-03-31T14:55:44;17.20;99.90
73277;DHT22;61501;43.316;5.372;2023-03-31T14:58:15;17.30;99.90
73277;DHT22;61501;43.316;5.372;2023-03-31T15:00:46;17.60;99.90
73277;DHT22;61501;43.316;5.372;2023-03-31T15:03:14;17.80;99.90
73277;DHT22;61501;43.316;5.372;2023-03-31T15:05:40;17.80;99.90
73277;DHT22;61501;43.316;5.372;2023-03-31T15:08:18;18.20;99.90
73277;DHT22;61501;43.316;5.372;2023-03-31T15:10:52;18.20;99.90
73277;DHT22;61501;43.316;5.372;2023-03-31T15:13:32;18.40;99.90
73277;DHT22;61501;43.316;5.372;2023-03-31T15:15:58;18.60;99.60
73277;DHT22;61501;43.316;5.372;2023-03-31T15:18:25;17.70;99.90
73277;DHT22;61501;43.316;5.372;2023-03-31T15:20:51;17.60;99.90
73277;DHT22;61501;43.316;5.372;2023-03-31T15:23:23;17.90;99.90
73277;DHT22;61501;43.316;5.372;2023-03-31T15:25:58;18.60;99.90
73277;DHT22;61501;43.316;5.372;2023-03-31T15:28:28;18.20;99.90
73277;DHT22;61501;43.316;5.372;2023-03-31T15:30:57;17.50;99.90
73277;DHT22;61501;43.316;5.372;2023-03-31T15:33:30;18.40;99.90
73277;DHT22;61501;43.316;5.372;2023-03-31T15:35:57;18.10;99.90
73277;DHT22;61501;43.316;5.372;2023-03-31T15:38:26;17.80;99.90
73277;DHT22;61501;43.316;5.372;2023-03-31T15:40:54;17.90;99.90
73277;DHT22;61501;43.316;5.372;2023-03-31T15:43:31;17.90;99.90
73277;DHT22;61501;43.316;5.372;2023-03-31T15:46:11;18.10;99.90
73277;DHT22;61501;43.316;5.372;2023-03-31T15:48:52;18.40;99.90
73277;DHT22;61501;43.316;5.372;2023-03-31T15:51:24;18.60;98.50
73277;DHT22;61501;43.316;5.372;2023-03-31T15:53:52;18.20;99.70
73277;DHT22;61501;43.316;5.372;2023-03-31T15:56:40;17.60;99.90
73277;DHT22;61501;43.316;5.372;2023-03-31T15:59:27;17.10;99.90
73277;DHT22;61501;43.316;5.372;2023-03-31T16:01:54;16.90;99.90
73277;DHT22;61501;43.316;5.372;2023-03-31T16:04:21;16.80;99.90
73277;DHT22;61501;43.316;5.372;2023-03-31T16:06:50;16.80;99.90
73277;DHT22;61501;43.316;5.372;2023-03-31T16:09:43;16.70;99.90
73277;DHT22;61501;43.316;5.372;2023-03-31T16:12:34;16.50;99.90
73277;DHT22;61501;43.316;5.372;2023-03-31T16:17:44;16.40;99.90
73277;DHT22;61501;43.316;5.372;2023-03-31T16:20:24;16.40;99.90
73277;DHT22;61501;43.316;5.372;2023-03-31T16:22:53;16.30;99.90
73277;DHT22;61501;43.316;5.372;2023-03-31T16:25:23;16.30;99.90
73277;DHT22;61501;43.316;5.372;2023-03-31T16:27:53;16.50;99.90
73277;DHT22;61501;43.316;5.372;2023-03-31T16:30:22;16.70;99.90
73277;DHT22;61501;43.316;5.372;2023-03-31T16:33:08;17.00;96.40
73277;DHT22;61501;43.316;5.372;2023-03-31T16:35:45;17.10;99.10
73277;DHT22;61501;43.316;5.372;2023-03-31T16:38:16;17.20;95.00
73277;DHT22;61501;43.316;5.372;2023-03-31T16:40:44;17.50;97.00
73277;DHT22;61501;43.316;5.372;2023-03-31T16:43:11;17.90;88.00
73277;DHT22;61501;43.316;5.372;2023-03-31T16:45:37;18.60;75.60
73277;DHT22;61501;43.316;5.372;2023-03-31T16:48:03;18.80;73.50
73277;DHT22;61501;43.316;5.372;2023-03-31T16:50:29;18.80;72.50
73277;DHT22;61501;43.316;5.372;2023-03-31T16:52:56;18.90;72.90
73277;DHT22;61501;43.316;5.372;2023-03-31T16:55:23;18.90;69.60
73277;DHT22;61501;43.316;5.372;2023-03-31T16:57:49;18.90;69.00
73277;DHT22;61501;43.316;5.372;2023-03-31T17:00:14;19.00;69.40
73277;DHT22;61501;43.316;5.372;2023-03-31T17:02:40;19.60;66.70
73277;DHT22;61501;43.316;5.372;2023-03-31T17:05:06;20.00;64.60
73277;DHT22;61501;43.316;5.372;2023-03-31T17:07:32;20.00;64.60
73277;DHT22;61501;43.316;5.372;2023-03-31T17:09:59;20.10;61.90
73277;DHT22;61501;43.316;5.372;2023-03-31T17:12:24;20.00;63.00
73277;DHT22;61501;43.316;5.372;2023-03-31T17:14:50;20.00;61.60
73277;DHT22;61501;43.316;5.372;2023-03-31T17:17:16;19.90;60.70
73277;DHT22;61501;43.316;5.372;2023-03-31T17:19:41;19.90;58.70
73277;DHT22;61501;43.316;5.372;2023-03-31T17:22:07;19.80;59.30
73277;DHT22;61501;43.316;5.372;2023-03-31T17:24:33;19.50;58.80
73277;DHT22;61501;43.316;5.372;2023-03-31T17:26:58;19.50;58.80
73277;DHT22;61501;43.316;5.372;2023-03-31T17:29:25;19.30;59.50
73277;DHT22;61501;43.316;5.372;2023-03-31T17:31:50;19.10;61.60
73277;DHT22;61501;43.316;5.372;2023-03-31T17:34:16;19.00;61.00
73277;DHT22;61501;43.316;5.372;2023-03-31T17:36:42;18.90;62.00
73277;DHT22;61501;43.316;5.372;2023-03-31T17:39:09;18.80;63.10
73277;DHT22;61501;43.316;5.372;2023-03-31T17:41:35;18.70;64.60
73277;DHT22;61501;43.316;5.372;2023-03-31T17:44:01;18.60;63.40
73277;DHT22;61501;43.316;5.372;2023-03-31T17:46:26;18.60;63.30
73277;DHT22;61501;43.316;5.372;2023-03-31T17:48:52;18.50;63.30
73277;DHT22;61501;43.316;5.372;2023-03-31T17:51:19;18.50;63.30
73277;DHT22;61501;43.316;5.372;2023-03-31T17:53:46;18.40;64.40
73277;DHT22;61501;43.316;5.372;2023-03-31T17:56:13;18.30;61.80
73277;DHT22;61501;43.316;5.372;2023-03-31T17:58:39;18.20;62.00
73277;DHT22;61501;43.316;5.372;2023-03-31T18:01:06;18.10;60.50
73277;DHT22;61501;43.316;5.372;2023-03-31T18:03:32;18.10;60.30
73277;DHT22;61501;43.316;5.372;2023-03-31T18:06:03;18.00;60.20
73277;DHT22;61501;43.316;5.372;2023-03-31T18:08:29;17.90;60.90